Flight Track Log - Related Links

Times and Time Zones

All times are in EDT time to prevent confusion due to time zone crossing. See the EJA941 flight status page for this flight to view local times or setup timezone preferences in your user account.

Time Position Orientation Groundspeed Altitude Reporting Facility
EDT Latitude Longitude Course Direction KTS MPH feet Rate Location/Type
Mon 10:41:35 AM 41.1167 -73.8167 298° West 231 266 3,400  Level New York TRACON
Mon 10:42:35 AM 41.1500 -73.7667 48° Northeast 243 280 6,800 3,400 Climbing New York TRACON
Mon 10:43:35 AM 41.1833 -73.7000 56° Northeast 269 310 10,200 2,874 Climbing New York TRACON
Mon 10:44:34 AM 41.2333 -73.5833 60° Northeast 335 386 12,500 966 Climbing New York TRACON
Mon 10:46:29 AM 41.3153 -73.3411 66° East 428 493 13,000 128 Climbing Boston Center
Mon 10:48:28 AM 41.3922 -73.0489 71° East 430 495 13,000  Level Boston Center
Mon 10:49:29 AM 41.4219 -72.9078 74° East 419 482 13,000  Level Boston Center
Mon 10:50:29 AM 41.4600 -72.7336 74° East 437 503 13,000  Level Boston Center
Mon 10:51:30 AM 41.4894 -72.5897 75° East 445 512 13,000  Level Boston Center
Mon 10:52:28 AM 41.5272 -72.4122 74° East 450 518 13,000  Level Boston Center
Mon 10:53:29 AM 41.5625 -72.2653 72° East 455 524 13,000  Level Boston Center
Mon 10:54:29 AM 41.6058 -72.0958 71° East 460 529 13,000  Level Boston Center
Mon 10:55:31 AM 41.6428 -71.9567 70° East 444 511 13,000  Level Boston Center
Mon 10:56:28 AM 41.6878 -71.7842 71° East 444 511 13,000  Level Boston Center
Mon 10:57:29 AM 41.7183 -71.6558 72° East 444 511 13,000  Level Boston Center
Mon 10:58:30 AM 41.7669 -71.4714 70° East 444 511 13,000  Level Boston Center
Mon 10:59:30 AM 41.8031 -71.3317 71° East 444 511 13,000 -763 Level Boston Center
Mon 11:00:28 AM 41.8431 -71.1722 71° East 425 489 11,500 -1,008 Descending Boston Center
Mon 11:01:29 AM 41.8794 -71.0683 65° Northeast 371 427 11,000 -246 Descending Boston Center
Mon 11:02:30 AM 41.9239 -70.9642 60° Northeast 344 396 11,000  Level Boston Center
Mon 11:03:31 AM 41.9847 -70.8314 58° Northeast 344 396 11,000 -555 Level Boston Center
Mon 11:04:29 AM 42.0414 -70.7236 55° Northeast 339 390 9,900 -1,373 Descending Boston Center
Mon 11:05:29 AM 42.1006 -70.6381 47° Northeast 327 376 8,300 -1,537 Descending Boston Center
Mon 11:06:30 AM 42.1731 -70.6053 19° North 288 331 6,800 -1,289 Descending Boston Center
Mon 11:07:30 AM 42.2417 -70.6058 360° North 255 293 5,700 -1,062 Descending Boston Center
Mon 11:08:40 AM 42.3067 -70.6208 350° North 238 274 4,500 -785 Descending Boston Center
Mon 11:09:40 AM 42.3739 -70.6528 341° North 222 255 4,000 -694 Descending Boston Center
Mon 11:10:41 AM 42.4081 -70.7022 313° West 188 216 3,100 -492 Descending Boston Center
Mon 11:11:42 AM 42.4025 -70.7586 262° West 149 171 3,000 -403 Descending Boston Center
Mon 11:12:40 AM 42.3908 -70.8236 256° West 156 180 2,300 -706 Descending Boston Center
Mon 11:13:41 AM 42.3814 -70.8803 257° West 173 199 1,600 -761 Descending Boston Center
Mon 11:14:54 AM 42.3667 -70.9500 254° West 135 155 600 -822 Descending KA90
Mon 11:16:00 AM 42.3500 -71.0000 North  Level FlightAware Approximate

Login

Don't have an account? Register now (free) for customized features, flight alerts, and more!